Time;durP1;ratioP1;P1;durP2;ratioP2;P2;SDS_P1;SDS_P2;PMS_P1;PMS_P2;Temp;Humidity;BMP_temperature;BMP_pressure;BME280_temperature;BME280_humidity;BME280_pressure;Samples;Min_cycle;Max_cycle;Signal;HPM_P1;HPM_P2
2022/05/11 00:01:12;;;;;;;9.30;5.20;;;;;;;10.62;59.80;98560.93;106194;1277;137940;-82
2022/05/11 00:03:40;;;;;;;13.20;5.50;;;;;;;10.59;59.13;98556.38;106396;1277;25440;-82
2022/05/11 00:06:08;;;;;;;8.90;4.80;;;;;;;10.56;59.13;98556.60;106201;1279;24412;-83
2022/05/11 00:08:36;;;;;;;9.50;5.60;;;;;;;10.54;59.15;98551.89;106402;1280;138191;-82
2022/05/11 00:11:04;;;;;;;13.50;6.00;;;;;;;10.54;58.97;98549.76;106479;1280;24300;-82
2022/05/11 00:13:33;;;;;;;12.60;5.40;;;;;;;10.54;58.87;98546.39;106122;1278;137871;-82
2022/05/11 00:16:04;;;;;;;15.70;5.30;;;;;;;10.54;58.72;98545.71;106604;1277;23077;-82
2022/05/11 00:18:31;;;;;;;12.50;5.10;;;;;;;10.53;59.03;98541.09;106474;1277;22559;-82
2022/05/11 00:20:58;;;;;;;8.60;5.10;;;;;;;10.52;58.82;98542.86;106294;1277;138246;-82
2022/05/11 00:23:36;;;;;;;10.40;5.10;;;;;;;10.52;58.69;98542.36;106537;1277;25477;-82
2022/05/11 00:26:03;;;;;;;12.60;5.30;;;;;;;10.51;58.57;98537.95;106291;1277;137872;-82
2022/05/11 00:28:30;;;;;;;9.00;4.90;;;;;;;10.50;58.69;98533.61;106495;1277;22561;-82
2022/05/11 00:31:01;;;;;;;11.90;4.50;;;;;;;10.50;58.55;98532.95;105938;1280;137748;-82
2022/05/11 00:33:42;;;;;;;8.60;4.90;;;;;;;10.48;59.16;98535.54;106478;1280;25422;-82
2022/05/11 00:36:11;;;;;;;11.20;4.90;;;;;;;10.44;59.97;98532.69;106157;1280;22694;-82
2022/05/11 00:38:40;;;;;;;11.00;6.40;;;;;;;10.40;60.20;98533.00;105959;1279;137829;-82
2022/05/11 00:41:07;;;;;;;9.50;5.30;;;;;;;10.35;61.01;98535.02;106253;1279;22597;-82
2022/05/11 00:43:41;;;;;;;10.20;5.00;;;;;;;10.30;61.21;98536.73;106044;1279;137685;-82
2022/05/11 00:46:23;;;;;;;8.90;4.90;;;;;;;10.28;60.88;98536.14;106292;1280;22606;-82
2022/05/11 00:51:49;;;;;;;10.10;5.10;;;;;;;10.31;60.45;98536.06;106302;1280;22552;-82
2022/05/11 00:54:19;;;;;;;10.90;5.50;;;;;;;10.34;60.32;98542.34;106400;1277;22578;-83
2022/05/11 00:56:56;;;;;;;7.90;5.00;;;;;;;10.36;60.23;98540.32;106173;1277;137913;-82
2022/05/11 00:59:42;;;;;;;8.10;5.10;;;;;;;10.38;60.30;98537.30;106550;1277;24422;-83
2022/05/11 01:02:23;;;;;;;10.20;5.40;;;;;;;10.37;60.10;98531.95;106174;1277;138596;-83
2022/05/11 01:04:54;;;;;;;9.00;4.90;;;;;;;10.36;60.02;98530.31;106601;1277;22750;-81
2022/05/11 01:07:22;;;;;;;14.70;5.50;;;;;;;10.36;60.52;98533.73;106304;1277;139859;-82
2022/05/11 01:09:53;;;;;;;9.30;4.70;;;;;;;10.35;60.80;98533.02;106114;1279;23923;-83
2022/05/11 01:12:22;;;;;;;6.90;4.70;;;;;;;10.34;61.30;98529.27;106160;1279;24441;-83
2022/05/11 01:14:53;;;;;;;9.90;5.00;;;;;;;10.31;61.86;98530.23;106265;1279;137619;-83
2022/05/11 01:17:24;;;;;;;10.60;5.40;;;;;;;10.27;62.16;98534.16;106570;1278;22604;-83
2022/05/11 01:20:12;;;;;;;12.00;6.90;;;;;;;10.09;62.92;98536.02;106286;1280;138131;-83
2022/05/11 01:23:06;;;;;;;10.10;5.30;;;;;;;9.93;63.50;98530.56;106566;1280;22555;-83
2022/05/11 01:25:35;;;;;;;10.90;5.20;;;;;;;9.85;63.92;98530.80;106474;1280;138466;-82
2022/05/11 01:28:12;;;;;;;8.40;4.60;;;;;;;9.84;63.69;98528.27;106405;1277;24370;-82
2022/05/11 01:30:43;;;;;;;10.00;5.20;;;;;;;9.86;63.56;98525.58;106391;1277;23967;-83
2022/05/11 01:33:14;;;;;;;10.60;5.70;;;;;;;9.89;63.37;98524.06;106427;1277;138425;-83
2022/05/11 01:36:02;;;;;;;9.40;5.60;;;;;;;9.89;63.35;98516.35;106368;1277;26632;-83
2022/05/11 01:38:45;;;;;;;9.60;4.70;;;;;;;9.91;63.27;98513.56;106430;1278;137918;-83
2022/05/11 01:41:35;;;;;;;7.90;4.90;;;;;;;9.92;63.19;98517.70;106240;1280;24228;-83
2022/05/11 01:44:15;;;;;;;8.10;5.00;;;;;;;9.91;63.18;98518.45;106154;1280;137464;-83
2022/05/11 01:46:48;;;;;;;8.90;4.80;;;;;;;9.89;63.07;98520.33;106515;1279;30520;-83
2022/05/11 01:49:19;;;;;;;13.10;5.00;;;;;;;9.88;63.12;98519.80;106433;1279;137797;-83
2022/05/11 01:51:47;;;;;;;13.30;5.40;;;;;;;9.85;63.14;98516.77;106227;1279;23732;-83
2022/05/11 01:54:15;;;;;;;8.20;5.00;;;;;;;9.84;63.17;98514.12;106179;1278;24293;-83
2022/05/11 01:56:43;;;;;;;11.60;5.40;;;;;;;9.81;63.39;98514.33;106288;1279;137281;-83
2022/05/11 01:59:10;;;;;;;7.30;4.50;;;;;;;9.79;63.27;98512.54;106382;1280;22547;-83
2022/05/11 02:01:41;;;;;;;8.20;4.50;;;;;;;9.77;63.42;98509.98;106031;1280;138524;-83
2022/05/11 02:09:32;;;;;;;8.80;4.90;;;;;;;9.72;63.40;98502.38;106373;1278;22659;-83
2022/05/11 02:11:58;;;;;;;9.90;4.60;;;;;;;9.74;63.47;98496.90;106434;1278;25955;-83
2022/05/11 02:14:40;;;;;;;8.40;4.30;;;;;;;9.76;63.46;98500.00;106399;1277;137865;-83
2022/05/11 02:17:21;;;;;;;11.20;5.50;;;;;;;9.78;63.49;98496.45;106282;1277;31233;-83
2022/05/11 02:19:48;;;;;;;10.90;5.00;;;;;;;9.80;63.51;98494.23;106412;1277;137679;-82
2022/05/11 02:22:14;;;;;;;8.30;5.10;;;;;;;9.82;63.65;98490.63;106584;1277;25329;-83
2022/05/11 02:24:42;;;;;;;6.60;4.30;;;;;;;9.85;63.64;98494.56;106570;1277;23389;-84
2022/05/11 02:27:09;;;;;;;9.00;4.80;;;;;;;9.85;63.61;98490.86;106520;1277;137260;-82
2022/05/11 02:29:37;;;;;;;7.20;4.60;;;;;;;9.85;63.53;98488.95;106352;1278;24438;-82
2022/05/11 02:32:05;;;;;;;7.00;4.20;;;;;;;9.85;63.60;98488.69;106378;1278;137449;-82
2022/05/11 02:37:13;;;;;;;9.70;4.80;;;;;;;9.85;63.64;98489.83;106440;1278;137757;-82
2022/05/11 02:39:40;;;;;;;8.00;4.70;;;;;;;9.83;63.53;98487.38;106456;1277;26586;-82
2022/05/11 02:42:07;;;;;;;7.60;4.40;;;;;;;9.81;63.64;98487.44;106596;1277;22568;-82
2022/05/11 02:44:34;;;;;;;7.60;4.60;;;;;;;9.74;63.85;98478.71;106188;1279;137572;-82
2022/05/11 02:47:01;;;;;;;10.20;5.40;;;;;;;9.74;63.96;98489.26;106504;1278;22577;-82
2022/05/11 02:49:30;;;;;;;7.70;4.90;;;;;;;9.72;64.17;98487.41;106471;1277;138016;-82
2022/05/11 02:51:58;;;;;;;8.30;4.60;;;;;;;9.69;64.21;98487.25;106745;1277;25254;-82
2022/05/11 02:54:25;;;;;;;10.50;4.60;;;;;;;9.68;64.37;98481.42;106710;1277;22560;-82
2022/05/11 02:56:53;;;;;;;10.00;4.80;;;;;;;9.68;64.40;98479.89;106401;1277;137957;-83
2022/05/11 02:59:34;;;;;;;12.00;5.30;;;;;;;9.69;64.44;98478.13;106419;1277;23249;-82
2022/05/11 03:02:05;;;;;;;10.10;4.90;;;;;;;9.73;64.37;98478.56;106655;1277;137738;-82
2022/05/11 03:04:35;;;;;;;8.10;4.60;;;;;;;9.73;64.44;98476.99;106596;1277;22384;-83
2022/05/11 03:07:02;;;;;;;7.40;4.80;;;;;;;9.74;64.50;98478.48;106080;1278;137475;-84
2022/05/11 03:09:29;;;;;;;8.40;4.80;;;;;;;9.76;64.61;98475.20;106119;1279;24346;-84
2022/05/11 03:11:56;;;;;;;8.60;5.00;;;;;;;9.77;64.68;98476.11;106216;1278;22729;-84
2022/05/11 03:14:23;;;;;;;9.00;4.70;;;;;;;9.77;64.77;98479.52;106294;1277;137393;-83
2022/05/11 03:16:55;;;;;;;7.30;4.60;;;;;;;9.77;64.63;98476.21;106667;1278;22545;-83
2022/05/11 03:19:22;;;;;;;7.80;4.90;;;;;;;9.77;64.63;98482.20;106084;1280;137650;-83
2022/05/11 03:21:51;;;;;;;9.10;4.80;;;;;;;9.78;64.82;98477.17;106293;1278;24272;-82
2022/05/11 03:24:23;;;;;;;5.80;4.50;;;;;;;9.78;64.57;98477.20;106518;1277;24696;-83
2022/05/11 03:26:50;;;;;;;8.70;4.90;;;;;;;9.79;64.69;98477.02;106458;1277;137464;-83
2022/05/11 03:29:19;;;;;;;9.90;4.90;;;;;;;9.80;64.76;98472.57;106680;1277;24267;-83
2022/05/11 03:34:36;;;;;;;8.80;4.40;;;;;;;9.88;64.95;98471.88;106364;1278;25424;-83
2022/05/11 03:37:17;;;;;;;10.70;4.20;;;;;;;9.93;64.87;98471.10;106199;1280;137639;-83
2022/05/11 03:39:45;;;;;;;11.30;5.10;;;;;;;9.98;64.90;98466.04;106322;1278;22645;-82
2022/05/11 03:42:17;;;;;;;11.50;5.20;;;;;;;10.03;64.97;98465.94;106519;1277;22563;-83
2022/05/11 03:44:45;;;;;;;8.70;4.70;;;;;;;10.10;64.66;98466.98;106500;1277;137859;-84
2022/05/11 03:47:12;;;;;;;10.70;5.40;;;;;;;10.14;64.71;98467.39;106279;1280;22538;-82
2022/05/11 03:49:39;;;;;;;12.60;5.60;;;;;;;10.19;64.79;98467.92;106233;1276;140715;-82
2022/05/11 03:52:09;;;;;;;10.10;5.00;;;;;;;10.21;64.67;98466.56;106432;1277;22599;-83
2022/05/11 03:54:36;;;;;;;11.40;5.50;;;;;;;10.25;64.71;98468.11;106326;1280;22590;-83
2022/05/11 03:57:03;;;;;;;7.90;4.60;;;;;;;10.29;64.89;98473.56;105999;1278;137864;-83
2022/05/11 03:59:33;;;;;;;10.40;4.80;;;;;;;10.34;64.69;98472.86;106302;1277;22730;-83
2022/05/11 04:02:00;;;;;;;10.20;4.80;;;;;;;10.39;64.70;98468.51;106215;1277;137688;-83
2022/05/11 04:04:27;;;;;;;9.70;5.10;;;;;;;10.45;64.60;98470.35;106527;1278;22825;-83
2022/05/11 04:06:56;;;;;;;7.90;4.60;;;;;;;10.51;64.74;98470.13;106168;1278;137912;-83
2022/05/11 04:09:39;;;;;;;16.00;6.40;;;;;;;10.59;64.77;98471.98;106196;1278;31526;-82
2022/05/11 04:12:09;;;;;;;10.90;4.70;;;;;;;10.66;64.66;98467.77;106338;1280;22708;-82
2022/05/11 04:14:36;;;;;;;15.10;5.10;;;;;;;10.71;64.13;98467.24;106291;1278;138060;-83
2022/05/11 04:17:04;;;;;;;12.50;5.40;;;;;;;10.76;64.06;98469.10;106255;1280;24271;-82
2022/05/11 04:19:32;;;;;;;10.70;5.50;;;;;;;10.79;63.78;98467.98;106232;1277;138079;-82
2022/05/11 04:21:59;;;;;;;7.10;4.70;;;;;;;10.84;63.91;98467.06;106428;1277;23521;-82
2022/05/11 04:24:40;;;;;;;12.10;5.60;;;;;;;10.88;63.78;98470.23;106205;1278;22564;-82
2022/05/11 04:27:07;;;;;;;14.60;6.00;;;;;;;10.92;63.97;98470.98;106111;1278;137939;-83
2022/05/11 04:29:38;;;;;;;10.80;5.20;;;;;;;10.99;64.05;98467.20;106351;1278;22547;-82
2022/05/11 04:32:19;;;;;;;8.80;5.10;;;;;;;11.06;64.07;98468.34;106336;1278;137988;-83
2022/05/11 04:34:46;;;;;;;9.10;5.70;;;;;;;11.11;63.91;98469.92;106258;1278;22557;-83
2022/05/11 04:37:14;;;;;;;11.70;5.90;;;;;;;11.20;63.98;98470.70;105993;1281;138883;-82
2022/05/11 04:39:44;;;;;;;10.40;5.80;;;;;;;11.32;63.97;98470.45;106130;1277;22850;-83
2022/05/11 04:42:14;;;;;;;13.80;6.00;;;;;;;11.43;63.49;98467.19;105890;1278;22562;-82
2022/05/11 04:44:43;;;;;;;11.20;5.80;;;;;;;11.53;63.57;98468.41;106166;1278;137620;-82
2022/05/11 04:47:13;;;;;;;12.20;5.60;;;;;;;11.64;64.14;98471.95;105997;1280;25602;-83
2022/05/11 04:49:54;;;;;;;12.10;6.40;;;;;;;11.73;63.91;98471.48;105875;1277;137922;-82
2022/05/11 04:52:35;;;;;;;10.00;6.00;;;;;;;11.82;63.68;98474.71;106270;1277;22629;-83
2022/05/11 04:55:18;;;;;;;11.30;5.50;;;;;;;11.93;63.95;98472.54;105994;1277;137955;-83
2022/05/11 04:57:45;;;;;;;10.60;5.30;;;;;;;12.03;63.60;98472.33;105996;1279;22696;-83
2022/05/11 05:00:26;;;;;;;14.10;5.40;;;;;;;12.12;63.33;98472.55;106044;1277;22815;-83
2022/05/11 05:02:53;;;;;;;11.50;5.60;;;;;;;12.21;63.74;98478.39;106024;1277;137652;-83
2022/05/11 05:05:20;;;;;;;14.30;5.80;;;;;;;12.28;63.34;98478.95;106420;1277;24307;-83
2022/05/11 05:07:47;;;;;;;16.30;5.90;;;;;;;12.34;64.21;98482.35;105968;1278;138521;-83
2022/05/11 05:10:16;;;;;;;17.80;5.50;;;;;;;12.43;64.04;98483.48;106178;1277;24097;-83
2022/05/11 05:12:43;;;;;;;17.10;6.70;;;;;;;12.50;63.96;98481.55;106361;1277;22555;-83
2022/05/11 05:15:12;;;;;;;14.90;5.90;;;;;;;12.57;63.50;98485.50;106405;1277;137744;-83
2022/05/11 05:17:39;;;;;;;18.80;6.70;;;;;;;12.66;63.63;98484.44;106413;1277;22519;-83
2022/05/11 05:20:20;;;;;;;17.30;6.20;;;;;;;12.76;63.29;98484.20;106303;1277;137840;-83
2022/05/11 05:22:47;;;;;;;19.70;6.00;;;;;;;12.84;62.98;98480.05;106389;1277;24272;-83
2022/05/11 05:25:14;;;;;;;19.60;6.20;;;;;;;12.92;62.91;98476.38;105758;1281;137838;-83
2022/05/11 05:27:41;;;;;;;24.20;6.50;;;;;;;13.01;62.73;98478.04;106418;1278;22548;-83
2022/05/11 05:32:50;;;;;;;30.40;6.50;;;;;;;13.20;62.82;98474.36;106323;1277;137985;-83
2022/05/11 05:35:31;;;;;;;17.40;7.10;;;;;;;13.30;62.53;98473.24;106812;1277;22657;-83
2022/05/11 05:37:58;;;;;;;19.70;6.90;;;;;;;13.39;62.21;98472.61;106440;1277;137681;-83
2022/05/11 05:40:25;;;;;;;18.60;5.90;;;;;;;13.48;61.84;98473.48;106260;1278;22614;-82
2022/05/11 05:42:52;;;;;;;23.80;7.10;;;;;;;13.55;61.85;98468.83;106230;1278;138248;-83
2022/05/11 05:45:19;;;;;;;18.30;6.60;;;;;;;13.63;61.67;98471.84;106538;1277;23008;-82
2022/05/11 05:47:46;;;;;;;25.30;7.50;;;;;;;13.70;61.62;98473.24;106840;1278;22666;-83
2022/05/11 05:50:13;;;;;;;23.80;7.80;;;;;;;13.77;61.65;98475.54;106554;1278;137742;-84
2022/05/11 05:52:40;;;;;;;21.50;7.10;;;;;;;13.86;61.73;98472.08;106482;1278;22537;-83
2022/05/11 05:55:07;;;;;;;21.50;6.90;;;;;;;13.96;61.56;98470.80;106292;1277;137789;-83
2022/05/11 05:57:34;;;;;;;22.30;7.10;;;;;;;14.06;61.39;98469.53;106218;1278;25372;-83
2022/05/11 06:00:04;;;;;;;21.80;6.50;;;;;;;14.15;60.79;98472.38;106836;1277;23285;-83
2022/05/11 06:02:37;;;;;;;11.90;5.90;;;;;;;14.27;59.93;98469.17;106654;1277;137801;-83
2022/05/11 06:05:04;;;;;;;10.40;5.60;;;;;;;14.39;59.24;98468.56;106747;1277;25318;-83
2022/05/11 06:07:33;;;;;;;10.10;5.30;;;;;;;14.52;58.40;98465.14;106136;1280;138208;-83
2022/05/11 06:10:14;;;;;;;13.50;5.30;;;;;;;14.65;58.19;98465.91;106559;1277;24217;-82
2022/05/11 06:12:54;;;;;;;10.20;5.30;;;;;;;14.78;57.35;98473.11;106557;1277;138383;-82
2022/05/11 06:15:22;;;;;;;11.00;5.30;;;;;;;14.87;57.06;98476.25;106893;1278;22609;-82
2022/05/11 06:17:48;;;;;;;12.30;5.40;;;;;;;14.96;56.50;98473.84;106850;1277;22551;-82
2022/05/11 06:20:16;;;;;;;11.20;5.70;;;;;;;15.03;56.27;98472.69;106390;1280;138805;-82
2022/05/11 06:22:42;;;;;;;12.80;5.30;;;;;;;15.13;56.05;98471.44;106554;1277;23959;-82
2022/05/11 06:25:10;;;;;;;9.50;4.80;;;;;;;15.23;56.21;98471.10;106747;1278;138770;-82
2022/05/11 06:27:37;;;;;;;13.20;5.40;;;;;;;15.32;56.15;98471.70;106706;1278;22720;-82
2022/05/11 06:30:06;;;;;;;13.80;5.10;;;;;;;15.42;55.38;98473.06;106705;1277;22625;-82
2022/05/11 06:32:33;;;;;;;16.80;6.20;;;;;;;15.54;54.98;98476.45;106486;1277;138162;-82
2022/05/11 06:35:00;;;;;;;9.40;4.30;;;;;;;15.66;53.86;98477.63;106779;1277;22571;-82
2022/05/11 06:37:27;;;;;;;12.20;4.40;;;;;;;15.77;53.64;98469.06;106414;1280;138333;-81
2022/05/11 06:39:54;;;;;;;8.30;4.30;;;;;;;15.88;52.76;98477.66;106230;1278;24345;-81
2022/05/11 06:42:22;;;;;;;9.40;4.50;;;;;;;15.99;52.61;98474.33;106963;1277;25399;-82
2022/05/11 06:44:50;;;;;;;8.20;4.30;;;;;;;16.11;52.29;98475.61;106276;1277;138101;-82
2022/05/11 06:47:18;;;;;;;10.60;4.60;;;;;;;16.25;52.16;98475.15;106520;1278;22775;-82
2022/05/11 06:49:45;;;;;;;10.90;4.50;;;;;;;16.37;52.24;98469.83;106207;1277;137754;-83
2022/05/11 06:52:26;;;;;;;8.00;4.10;;;;;;;16.48;52.17;98469.27;106384;1277;25260;-82
2022/05/11 07:00:17;;;;;;;8.60;4.70;;;;;;;16.88;52.31;98463.32;106763;1278;24262;-82
2022/05/11 07:02:44;;;;;;;8.20;4.80;;;;;;;16.99;51.01;98463.80;106352;1277;137504;-82
2022/05/11 07:05:11;;;;;;;10.10;4.10;;;;;;;17.13;50.73;98457.58;106463;1277;24231;-80
2022/05/11 07:07:39;;;;;;;9.10;4.20;;;;;;;17.28;51.00;98459.70;106295;1277;139564;-84
2022/05/11 07:10:07;;;;;;;8.50;3.90;;;;;;;17.44;50.76;98458.52;106676;1278;23919;-87
2022/05/11 07:12:45;;;;;;;11.80;4.40;;;;;;;17.62;50.66;98459.21;106619;1277;25212;-83
2022/05/11 07:15:18;;;;;;;11.40;4.10;;;;;;;17.77;50.20;98451.89;106506;1277;137673;-82
2022/05/11 07:17:52;;;;;;;6.50;4.20;;;;;;;17.96;50.49;98449.01;106552;1277;22700;-81
2022/05/11 07:20:24;;;;;;;9.50;4.10;;;;;;;18.13;50.09;98447.03;106699;1278;137738;-80
2022/05/11 07:22:54;;;;;;;7.10;3.90;;;;;;;18.29;49.93;98446.17;106467;1277;22560;-78
2022/05/11 07:25:24;;;;;;;9.40;4.20;;;;;;;18.47;50.11;98444.58;106350;1278;137900;-83
2022/05/11 07:27:52;;;;;;;11.50;4.60;;;;;;;18.67;50.11;98442.20;106718;1277;25382;-83
2022/05/11 07:30:24;;;;;;;16.00;4.50;;;;;;;18.88;50.45;98445.30;107192;1277;22559;-81
2022/05/11 07:32:54;;;;;;;11.80;4.60;;;;;;;19.06;49.71;98444.39;106537;1277;137775;-79
2022/05/11 07:35:21;;;;;;;16.30;4.80;;;;;;;19.23;49.97;98440.13;106460;1278;23388;-85
2022/05/11 07:37:50;;;;;;;11.80;4.40;;;;;;;19.40;49.73;98433.27;106801;1277;137830;-81
2022/05/11 07:40:20;;;;;;;11.90;4.40;;;;;;;19.56;49.04;98431.39;106380;1277;22699;-84
2022/05/11 07:42:48;;;;;;;15.10;5.20;;;;;;;19.72;49.04;98427.61;107128;1277;24536;-83
2022/05/11 07:45:17;;;;;;;13.60;4.90;;;;;;;19.89;48.74;98420.27;106675;1277;137789;-84
2022/05/11 07:47:44;;;;;;;;;;;;;;;20.09;48.76;98421.19;106497;1277;22522;-83
2022/05/11 07:50:13;;;;;;;11.10;4.60;;;;;;;20.23;48.09;98415.13;106119;1278;124434;-84
2022/05/11 07:52:40;;;;;;;;;;;;;;;20.38;47.90;98407.63;106603;1277;22518;-83
2022/05/11 07:55:08;;;;;;;8.60;3.80;;;;;;;20.52;47.25;98411.86;106307;1277;124192;-82
2022/05/11 08:00:16;;;;;;;10.60;4.00;;;;;;;20.77;46.45;98405.54;106403;1277;22556;-83
2022/05/11 08:02:43;;;;;;;10.20;3.90;;;;;;;20.87;46.42;98402.17;106492;1277;137951;-82
2022/05/11 08:05:13;;;;;;;9.30;3.90;;;;;;;21.03;46.56;98398.96;106624;1277;25387;-83
2022/05/11 08:07:43;;;;;;;9.80;4.40;;;;;;;21.20;46.28;98388.91;106130;1277;137812;-84
2022/05/11 08:10:16;;;;;;;6.70;3.90;;;;;;;21.33;45.33;98388.71;106354;1277;22554;-83
2022/05/11 08:12:43;;;;;;;5.50;4.00;;;;;;;21.47;45.31;98388.32;106034;1278;24357;-83
2022/05/11 08:15:12;;;;;;;7.70;4.00;;;;;;;21.62;45.36;98387.09;106438;1277;138002;-83
2022/05/11 08:17:42;;;;;;;6.70;3.30;;;;;;;21.78;44.93;98385.65;106246;1278;22539;-82
2022/05/11 08:20:16;;;;;;;10.00;3.50;;;;;;;21.95;43.43;98384.33;106694;1277;137699;-84
2022/05/11 08:22:45;;;;;;;7.70;3.10;;;;;;;22.08;42.41;98383.39;106451;1277;24669;-83
2022/05/11 08:25:16;;;;;;;5.90;3.00;;;;;;;22.23;42.45;98385.61;106158;1278;137834;-83
2022/05/11 08:27:43;;;;;;;5.10;3.20;;;;;;;22.36;41.89;98387.52;106266;1280;25279;-82
2022/05/11 08:35:51;;;;;;;7.50;3.90;;;;;;;22.80;41.64;98386.02;106806;1277;22596;-83
2022/05/11 08:38:21;;;;;;;7.90;3.90;;;;;;;22.94;41.45;98385.71;106148;1277;138329;-82
2022/05/11 08:41:28;;;;;;;9.70;3.80;;;;;;;23.11;41.21;98385.36;107064;1277;22577;-82
2022/05/11 08:44:11;;;;;;;11.60;3.80;;;;;;;23.31;41.25;98385.11;106700;1277;137480;-83
2022/05/11 08:47:02;;;;;;;6.70;3.30;;;;;;;23.48;41.10;98384.89;106334;1277;25407;-82
2022/05/11 08:49:47;;;;;;;5.70;3.20;;;;;;;23.65;40.38;98382.96;106050;1278;137755;-83
2022/05/11 08:52:50;;;;;;;6.90;2.90;;;;;;;23.78;40.46;98380.67;106566;1277;22538;-84
2022/05/11 08:55:46;;;;;;;10.50;3.70;;;;;;;23.92;40.46;98378.67;106614;1277;137940;-83
2022/05/11 08:58:22;;;;;;;8.80;3.70;;;;;;;24.06;39.63;98374.02;106730;1277;22576;-82
2022/05/11 09:00:53;;;;;;;4.70;3.30;;;;;;;24.17;39.04;98375.09;106594;1277;22555;-84
2022/05/11 09:03:31;;;;;;;16.50;4.40;;;;;;;24.29;39.27;98367.66;106646;1277;137421;-82
2022/05/11 09:06:06;;;;;;;9.60;3.60;;;;;;;24.40;38.81;98367.94;106518;1277;31046;-82
2022/05/11 09:08:36;;;;;;;8.80;3.50;;;;;;;24.52;38.79;98364.84;106134;1277;137691;-83
2022/05/11 09:11:10;;;;;;;7.20;4.10;;;;;;;24.64;38.59;98366.79;106310;1278;22597;-80
2022/05/11 09:13:39;;;;;;;6.20;3.50;;;;;;;24.77;38.24;98361.47;106132;1277;138109;-83
2022/05/11 09:16:18;;;;;;;6.00;3.30;;;;;;;24.91;38.53;98363.64;106352;1278;23362;-82
2022/05/11 09:18:45;;;;;;;5.60;3.50;;;;;;;25.07;37.99;98363.27;106449;1277;25372;-83
2022/05/11 09:21:30;;;;;;;7.50;3.70;;;;;;;25.20;37.75;98366.75;106599;1278;138085;-84
2022/05/11 09:24:22;;;;;;;6.60;3.60;;;;;;;25.35;37.45;98362.05;106305;1278;23460;-84
2022/05/11 09:27:01;;;;;;;;;;;;;;;25.45;37.65;98360.53;106376;1277;137505;-83
2022/05/11 09:29:46;;;;;;;5.30;3.80;;;;;;;25.49;36.87;98361.73;106481;1278;22592;-84
2022/05/11 09:32:31;;;;;;;7.90;3.60;;;;;;;25.52;36.81;98361.98;106386;1277;138390;-82
2022/05/11 09:35:24;;;;;;;7.30;4.10;;;;;;;25.62;37.54;98362.55;106570;1278;25390;-84
2022/05/11 09:38:17;;;;;;;6.10;4.10;;;;;;;25.80;36.96;98356.52;106551;1277;137506;-84
2022/05/11 09:41:02;;;;;;;5.20;4.00;;;;;;;25.98;36.22;98355.77;107141;1279;22735;-83
2022/05/11 09:43:38;;;;;;;7.10;3.70;;;;;;;26.14;36.52;98358.02;106222;1277;137892;-85
2022/05/11 09:46:29;;;;;;;7.00;3.70;;;;;;;26.29;35.80;98357.63;106357;1278;22634;-82
2022/05/11 09:49:18;;;;;;;5.90;4.40;;;;;;;26.48;35.79;98356.11;106132;1278;22566;-83
2022/05/11 09:51:45;;;;;;;5.30;3.40;;;;;;;26.65;35.65;98356.23;106048;1278;138330;-82
2022/05/11 09:54:18;;;;;;;5.60;3.60;;;;;;;26.79;34.72;98355.21;106481;1277;22636;-82
2022/05/11 09:57:00;;;;;;;8.50;3.70;;;;;;;26.90;33.92;98355.19;106529;1277;137504;-82
2022/05/11 09:59:49;;;;;;;5.20;3.30;;;;;;;26.93;33.22;98354.77;106475;1277;22538;-81
2022/05/11 10:02:22;;;;;;;7.80;3.10;;;;;;;26.96;32.71;98351.11;105941;1278;137706;-87
2022/05/11 10:04:57;;;;;;;7.70;3.30;;;;;;;27.00;32.72;98347.56;106837;1277;25267;-84
2022/05/11 10:07:27;;;;;;;7.00;3.50;;;;;;;27.07;33.05;98351.35;106274;1277;137904;-83
2022/05/11 10:10:02;;;;;;;7.30;3.50;;;;;;;27.05;33.22;98349.21;106728;1277;22545;-84
2022/05/11 10:12:36;;;;;;;3.10;2.80;;;;;;;27.16;33.55;98348.48;106067;1277;248748;-84
2022/05/11 10:23:30;;;;;;;3.40;3.00;;;;;;;27.36;31.19;98343.75;106392;1279;22575;-84
2022/05/11 10:26:05;;;;;;;4.50;3.30;;;;;;;27.40;31.30;98342.98;106404;1277;137674;-86
2022/05/11 10:28:56;;;;;;;6.60;3.30;;;;;;;27.44;31.90;98343.97;106524;1277;23802;-83
2022/05/11 10:31:33;;;;;;;9.90;3.40;;;;;;;27.61;30.94;98330.89;106327;1278;138058;-82
2022/05/11 10:34:34;;;;;;;8.60;3.80;;;;;;;27.77;30.36;98333.90;106615;1277;23089;-85
2022/05/11 10:37:19;;;;;;;10.30;4.10;;;;;;;27.80;29.76;98339.75;106836;1277;24345;-84
2022/05/11 10:40:12;;;;;;;7.20;3.40;;;;;;;27.72;29.50;98331.61;106692;1277;137954;-84
2022/05/11 10:43:19;;;;;;;13.10;3.60;;;;;;;27.85;30.33;98328.01;106498;1278;25328;-82
2022/05/11 10:45:59;;;;;;;4.30;3.10;;;;;;;28.08;30.81;98325.95;106233;1277;137692;-84
2022/05/11 10:48:54;;;;;;;4.90;3.60;;;;;;;28.28;30.20;98317.27;106432;1277;22584;-83
2022/05/11 10:51:39;;;;;;;6.80;3.40;;;;;;;28.48;29.67;98322.18;106425;1277;137531;-83
2022/05/11 10:54:40;;;;;;;7.20;3.70;;;;;;;28.51;29.21;98319.52;106416;1278;24273;-82
2022/05/11 10:57:22;;;;;;;13.00;3.70;;;;;;;28.57;28.86;98317.25;106318;1277;137494;-83
2022/05/11 10:59:55;;;;;;;5.60;3.30;;;;;;;28.68;29.36;98320.85;106482;1277;22644;-86
2022/05/11 11:02:56;;;;;;;5.00;3.40;;;;;;;28.69;29.02;98323.35;106370;1277;138218;-84
2022/05/11 11:05:40;;;;;;;7.00;4.30;;;;;;;28.60;29.19;98321.56;106535;1277;22646;-84
2022/05/11 11:08:25;;;;;;;6.60;3.60;;;;;;;28.49;29.58;98317.41;106339;1277;137805;-86
2022/05/11 11:11:05;;;;;;;7.00;3.50;;;;;;;28.45;29.01;98307.15;106367;1279;22638;-83
2022/05/11 11:14:01;;;;;;;5.60;3.30;;;;;;;28.31;29.38;98315.10;106373;1277;138302;-83
2022/05/11 11:16:32;;;;;;;8.80;3.40;;;;;;;28.14;29.43;98319.83;106136;1277;22541;-86
2022/05/11 11:19:14;;;;;;;5.60;3.20;;;;;;;27.97;29.59;98317.94;106141;1277;23236;-82
2022/05/11 11:21:42;;;;;;;5.20;3.70;;;;;;;27.92;29.79;98312.86;106312;1277;137401;-84
2022/05/11 11:24:12;;;;;;;5.40;3.20;;;;;;;27.89;30.29;98311.17;106906;1277;23322;-84
2022/05/11 11:27:02;;;;;;;5.80;3.70;;;;;;;27.81;30.21;98309.69;106215;1277;137420;-85
2022/05/11 11:29:36;;;;;;;8.90;3.40;;;;;;;27.82;30.30;98304.13;106331;1278;22587;-83
2022/05/11 11:32:13;;;;;;;4.40;3.30;;;;;;;27.85;30.84;98302.52;106179;1278;137918;-84
2022/05/11 11:35:22;;;;;;;9.20;4.10;;;;;;;27.77;30.76;98307.04;106110;1278;22601;-85
2022/05/11 11:38:01;;;;;;;6.80;3.80;;;;;;;27.74;30.85;98306.02;106451;1277;137674;-85
2022/05/11 11:40:33;;;;;;;6.20;3.50;;;;;;;27.84;30.50;98307.76;106269;1280;25494;-85
2022/05/11 11:43:38;;;;;;;7.70;3.60;;;;;;;27.86;29.20;98305.17;106461;1278;22562;-84
2022/05/11 11:45:50;;;;;;;6.50;3.20;;;;;;;27.81;29.63;98302.09;106456;1278;137902;-85
2022/05/11 11:48:25;;;;;;;6.90;3.80;;;;;;;27.79;29.55;98300.85;106394;1278;22560;-83
2022/05/11 11:50:59;;;;;;;7.10;4.00;;;;;;;27.87;29.64;98307.98;106462;1277;137607;-84
2022/05/11 11:53:54;;;;;;;7.50;3.60;;;;;;;27.90;29.28;98308.45;106371;1277;22552;-85
2022/05/11 11:56:24;;;;;;;14.20;3.40;;;;;;;28.03;29.15;98303.52;106409;1277;137550;-85
2022/05/11 11:59:19;;;;;;;5.60;3.60;;;;;;;28.14;28.23;98301.75;106446;1278;22561;-84
2022/05/11 12:01:48;;;;;;;9.60;3.40;;;;;;;28.20;28.09;98293.26;106384;1277;138073;-83
2022/05/11 12:04:28;;;;;;;8.00;3.80;;;;;;;28.22;28.34;98296.17;106440;1277;22717;-87
2022/05/11 12:15:34;;;;;;;4.90;3.40;;;;;;;28.68;27.51;98290.59;106428;1278;137590;-85
2022/05/11 12:18:30;;;;;;;8.40;3.30;;;;;;;28.86;27.70;98288.60;106371;1277;22626;-84
2022/05/11 12:21:27;;;;;;;5.60;3.20;;;;;;;28.92;26.95;98287.38;106113;1278;137566;-86
2022/05/11 12:23:57;;;;;;;8.60;3.50;;;;;;;28.86;26.47;98278.70;106805;1278;22579;-86
2022/05/11 12:26:40;;;;;;;3.60;3.10;;;;;;;28.92;27.03;98280.33;106486;1278;137598;-86
2022/05/11 12:31:59;;;;;;;6.00;3.20;;;;;;;29.10;27.19;98271.34;106717;1277;137755;-85
2022/05/11 12:34:30;;;;;;;7.00;3.10;;;;;;;29.23;26.33;98272.41;106167;1278;24266;-87
2022/05/11 12:36:58;;;;;;;7.20;3.20;;;;;;;29.28;26.04;98270.65;106257;1277;22538;-87
2022/05/11 12:39:35;;;;;;;3.40;3.10;;;;;;;29.35;25.75;98263.48;106349;1277;138038;-81